This is the latest recevied weather packets stored in our database for station/object N4OGP-WX. If no packets are shown the sender has not sent any weather packets the latest 10 day(s).
| Time | Temp. | Humidity | Pressure | Rain* | Wind** | Luminosity | Snow |
|---|---|---|---|---|---|---|---|
| 1778249729 | 23.89° C | 42% | 1020.4 hPa | 0 mm | - | - | - |
| 1778249639 | 23.89° C | 42% | 1020.4 hPa | 0 mm | - | - | - |
| 1778249549 | 20.56° C | 85% | 1013 hPa | 0 mm | - | - | - |
| 1778249489 | 23.89° C | 42% | 1020.4 hPa | 0 mm | - | - | - |
| 1778249429 | 23.89° C | 42% | 1020.4 hPa | 0 mm | - | - | - |
| 1778249338 | 20.56° C | 85% | 1013 hPa | 0 mm | - | - | - |
| 1778249279 | 20.56° C | 85% | 1013.1 hPa | 0 mm | - | - | - |
| 1778249189 | 20.56° C | 85% | 1013.1 hPa | 0 mm | - | - | - |
| 1778249129 | 20.56° C | 85% | 1013.1 hPa | 0 mm | - | - | - |
| 1778249039 | 20.56° C | 86% | 1013 hPa | 0 mm | - | - | - |
| 1778248979 | 23.89° C | 42% | 1020.4 hPa | 0 mm | - | - | - |
| 1778248919 | 23.89° C | 42% | 1020.4 hPa | 0 mm | - | - | - |
| 1778248829 | 23.89° C | 42% | 1020.4 hPa | 0 mm | - | - | - |
| 1778248769 | 23.89° C | 42% | 1020.4 hPa | 0 mm | - | - | - |
| 1778248679 | 23.89° C | 42% | 1020.4 hPa | 0 mm | - | - | - |
| 1778248618 | 23.89° C | 42% | 1020.4 hPa | 0 mm | - | - | - |
| 1778248559 | 23.89° C | 42% | 1020.4 hPa | 0 mm | - | - | - |
| 1778248468 | 20.56° C | 85% | 1013.2 hPa | 0 mm | - | - | - |
| 1778248409 | 20.56° C | 85% | 1013.2 hPa | 0 mm | - | - | - |
| 1778248288 | 20.56° C | 85% | 1013.2 hPa | 0 mm | - | - | - |
| 1778248198 | 20.56° C | 85% | 1013.2 hPa | 0 mm | - | - | - |
| 1778248138 | 20.56° C | 86% | 1013.1 hPa | 0 mm | - | - | - |
| 1778248079 | 23.89° C | 42% | 1020.4 hPa | 0 mm | - | - | - |
| 1778247988 | 20.56° C | 86% | 1013 hPa | 0 mm | - | - | - |
| 1778247899 | 20.56° C | 85% | 1013.1 hPa | 0 mm | - | - | - |
* Rain latest hour (hover to see other rain measurements)
** Current wind speed in m/s (hover to see current wind gust speed)